• Join FlightAware (Why Join?)
  • Login
  • US Flag 
07:01AM EDT


 

Airport Tracker/Info


-or-


 

Live Flight TrackerFlight Track Log ✈ AAL2384 ✈ 22-Jun-2013 ✈ KDFW - KORD

Flight Track Log - Related Links

Times and Time Zones

All times are in EDT time to prevent confusion due to time zone crossing. See the AAL2384 flight status page for this flight to view local times or setup timezone preferences in your user account.

Time Position Orientation Groundspeed Altitude Reporting Facility
EDT Latitude Longitude Course Direction KTS MPH feet Rate Location/Type
10:23PM 32.8833 -97.0333 77° East 177 204 1,300  Level Dallas / Fort Worth TRACON
10:24PM 32.8167 -97.0000 157° South 235 270 4,600 2,520 Climbing Dallas / Fort Worth TRACON
10:25PM 32.7667 -96.9500 140° Southeast 287 330 7,400 3,120 Climbing Dallas / Fort Worth TRACON
10:26PM 32.8000 -96.8667 65° Northeast 306 352 10,800 2,640 Climbing Dallas / Fort Worth TRACON
10:28PM 32.7601 -96.8495 77° East  Level FlightAware Approximate
10:29PM 33.0178 -96.8486 North 341 392 16,400  Level Fort Worth Center
10:30PM 33.1244 -96.8428 North 372 428 19,100 2,280 Climbing Fort Worth Center
10:31PM 33.2328 -96.8372 North 386 444 21,000 1,920 Climbing Fort Worth Center
10:32PM 33.3350 -96.8317 North 398 458 23,000 1,800 Climbing Fort Worth Center
10:33PM 33.4519 -96.8158 North 409 471 24,700 1,620 Climbing Fort Worth Center
10:34PM 33.5622 -96.7553 25° Northeast 414 476 26,300 1,500 Climbing Fort Worth Center
10:35PM 33.6725 -96.6822 29° Northeast 432 497 27,700 1,440 Climbing Fort Worth Center
10:36PM 33.7847 -96.6089 29° Northeast 444 511 29,200 1,320 Climbing Fort Worth Center
10:37PM 33.8969 -96.5378 28° Northeast 449 517 30,400 1,380 Climbing Fort Worth Center
10:38PM 34.0092 -96.4664 28° Northeast 449 517 32,000 1,380 Climbing Fort Worth Center
10:39PM 34.1233 -96.3797 32° Northeast 448 516 33,200 1,140 Climbing Fort Worth Center
10:40PM 34.2269 -96.2958 34° Northeast 448 516 34,300 900 Climbing Fort Worth Center
10:41PM 34.3325 -96.2089 34° Northeast 448 516 35,000 300 Climbing Fort Worth Center
10:42PM 34.4381 -96.1192 35° Northeast 453 521 35,000  Level Fort Worth Center
10:43PM 34.5456 -96.0319 34° Northeast 464 534 35,000  Level Fort Worth Center
10:44PM 34.6508 -95.9469 34° Northeast 458 527 35,000  Level Fort Worth Center
10:45PM 34.7542 -95.8617 34° Northeast 458 527 35,000  Level Fort Worth Center
10:46PM 34.8575 -95.7714 36° Northeast 458 527 35,000  Level Fort Worth Center
10:47PM 34.9625 -95.6806 35° Northeast 464 534 35,000  Level Fort Worth Center
10:48PM 35.1214 -95.5258 39° Northeast 464 534 35,000  Level Memphis Center
10:49PM 35.2233 -95.4328 37° Northeast 453 521 35,000  Level Memphis Center
10:50PM 35.3231 -95.3372 38° Northeast 453 521 35,000  Level Memphis Center
10:51PM 35.4228 -95.2436 37° Northeast 453 521 35,000  Level Memphis Center
10:52PM 35.5225 -95.1475 38° Northeast 453 521 35,000  Level Memphis Center
10:53PM 35.6219 -95.0511 38° Northeast 453 521 35,000  Level Memphis Center
10:54PM 35.7214 -94.9544 38° Northeast 453 521 35,000  Level Memphis Center
10:55PM 35.8189 -94.8575 39° Northeast 453 521 35,000  Level Memphis Center
10:56PM 35.9203 -94.7606 38° Northeast 453 521 35,000  Level Memphis Center
10:57PM 36.0194 -94.6658 38° Northeast 453 521 35,000  Level Memphis Center
10:58PM 36.1167 -94.5681 39° Northeast 453 521 35,000  Level Memphis Center
10:59PM 36.1567 -94.5311 37° Northeast 457 526 35,000  Level Kansas City Center
11:00PM 36.2758 -94.4147 38° Northeast 457 526 35,000  Level Kansas City Center
11:01PM 36.3756 -94.3167 38° Northeast 457 526 35,000  Level Kansas City Center
11:02PM 36.4739 -94.2206 38° Northeast 454 522 35,000  Level Kansas City Center
11:03PM 36.5711 -94.1244 38° Northeast 450 518 35,000  Level Kansas City Center
11:04PM 36.6683 -94.0275 39° Northeast 449 517 35,000  Level Kansas City Center
11:05PM 36.7661 -93.9308 38° Northeast 448 516 35,000  Level Kansas City Center
11:06PM 36.8639 -93.8333 39° Northeast 449 517 35,000  Level Kansas City Center
11:07PM 36.9636 -93.7297 40° Northeast 448 516 35,000  Level Kansas City Center
11:08PM 37.0628 -93.6311 38° Northeast 451 519 35,000  Level Kansas City Center
11:09PM 37.1594 -93.5317 39° Northeast 450 518 35,000 -300 Level Kansas City Center
11:10PM 37.2586 -93.4319 39° Northeast 454 522 34,500 -840 Descending Kansas City Center
11:11PM 37.3597 -93.3325 38° Northeast 457 526 33,400 -1,140 Descending Kansas City Center
11:12PM 37.4603 -93.2364 37° Northeast 454 522 32,300 -1,080 Descending Kansas City Center
11:13PM 37.5636 -93.1411 36° Northeast 456 525 31,300 -660 Descending Kansas City Center
11:14PM 37.6686 -93.0450 36° Northeast 461 531 31,000 -180 Descending Kansas City Center
11:15PM 37.7733 -92.9472 36° Northeast 464 534 31,000  Level Kansas City Center
11:16PM 37.8794 -92.8489 36° Northeast 468 539 31,000  Level Kansas City Center
11:17PM 37.9856 -92.7503 36° Northeast 469 540 31,000  Level Kansas City Center
11:18PM 38.0819 -92.6589 37° Northeast 471 542 31,000  Level Kansas City Center
11:19PM 38.2006 -92.5483 36° Northeast 471 542 31,000  Level Kansas City Center
11:20PM 38.3072 -92.4478 36° Northeast 471 542 31,000  Level Kansas City Center
11:21PM 38.4125 -92.3461 37° Northeast 470 541 31,000  Level Kansas City Center
11:22PM 38.5175 -92.2444 37° Northeast 470 541 31,000  Level Kansas City Center
11:23PM 38.6239 -92.1428 37° Northeast 474 545 31,000  Level Kansas City Center
11:24PM 38.7308 -92.0403 37° Northeast 477 549 31,000  Level Kansas City Center
11:25PM 38.8369 -91.9367 37° Northeast 477 549 31,000  Level Kansas City Center
11:26PM 38.9475 -91.8303 37° Northeast 489 563 31,000  Level Kansas City Center
11:27PM 39.0572 -91.7225 37° Northeast 494 568 31,000  Level Kansas City Center
11:28PM 39.1722 -91.6117 37° Northeast 495 570 31,000  Level Kansas City Center
11:29PM 39.2825 -91.5033 37° Northeast 496 571 31,000  Level Kansas City Center
11:30PM 39.3931 -91.3950 37° Northeast 499 574 31,000  Level Kansas City Center
11:31PM 39.5017 -91.2869 37° Northeast 494 568 31,000  Level Kansas City Center
11:32PM 39.6106 -91.1783 38° Northeast 493 567 31,000  Level Kansas City Center
11:33PM 39.7197 -91.0692 38° Northeast 493 567 31,000  Level Kansas City Center
11:34PM 39.8322 -90.9572 37° Northeast 492 566 31,000  Level Kansas City Center
11:35PM 39.9400 -90.8489 38° Northeast 492 566 31,000  Level Kansas City Center
11:36PM 40.0483 -90.7406 37° Northeast 489 563 31,000  Level Kansas City Center
11:37PM 40.1542 -90.6308 38° Northeast 487 560 31,000  Level Kansas City Center
11:38PM 40.2617 -90.5225 38° Northeast 487 560 31,000  Level Kansas City Center
11:39PM 40.3681 -90.4119 38° Northeast 487 560 31,000  Level Kansas City Center
11:40PM 40.4331 -90.3467 37° Northeast 490 564 31,000 -120 Level Chicago Center
11:41PM 40.5492 -90.2289 38° Northeast 487 560 30,900 -600 Descending Chicago Center
11:42PM 40.6561 -90.1172 38° Northeast 492 566 29,900 -1,500 Descending Chicago Center
11:43PM 40.7622 -90.0097 37° Northeast 485 558 27,900 -2,040 Descending Chicago Center
11:44PM 40.8581 -89.9028 40° Northeast 458 527 25,900 -1,860 Descending Chicago Center
11:45PM 40.9578 -89.8031 37° Northeast 448 516 24,200 -1,800 Descending Chicago Center
11:46PM 41.0508 -89.7036 39° Northeast 421 484 22,400 -1,800 Descending Chicago Center
11:47PM 41.1378 -89.6119 38° Northeast 405 466 20,600 -1,740 Descending Chicago Center
11:48PM 41.2006 -89.4894 56° Northeast 402 463 19,000 -1,500 Descending Chicago Center
11:49PM 41.2539 -89.3617 61° Northeast 394 453 17,600 -1,440 Descending Chicago Center
11:50PM 41.3042 -89.2325 63° Northeast 394 453 16,100 -1,500 Descending Chicago Center
11:51PM 41.3497 -89.1161 62° Northeast 383 441 14,700 -1,440 Descending Chicago Center
11:52PM 41.3981 -88.9942 62° Northeast 374 430 13,200 -1,500 Descending Chicago Center
11:53PM 41.4447 -88.8761 62° Northeast 363 418 11,700 -1,140 Descending Chicago Center
11:54PM 41.4914 -88.7614 61° Northeast 356 410 11,000 -360 Descending Chicago Center
11:55PM 41.5367 -88.6464 62° Northeast 352 405 11,000  Level Chicago Center
11:56PM 41.5889 -88.5372 57° Northeast 353 406 11,000  Level Chicago Center
11:57PM 41.6711 -88.4617 34° Northeast 358 412 11,000 -180 Level Chicago Center
11:58PM 41.7483 -88.3847 37° Northeast 347 399 10,700 -900 Descending Chicago Center
11:59PM 41.8217 -88.3225 32° Northeast 311 358 9,200 -1,620 Descending Chicago Center
12:00AM 41.9061 -88.2464 34° Northeast 306 352 7,500 -1,200 Descending Chicago Center
12:01AM 41.9761 -88.2203 15° North 264 304 6,800 -1,020 Descending Chicago Center
12:02AM 42.0386 -88.1850 23° Northeast 249 287 5,500 -1,320 Descending Chicago Center
12:03AM 42.1000 -88.1167 40° Northeast 238 274 4,100 -1,080 Descending Chicago TRACON
12:04AM 42.1167 -88.0667 66° East 211 243 3,400 -780 Descending Chicago TRACON